Time;durP1;ratioP1;P1;durP2;ratioP2;P2;SDS_P1;SDS_P2;PMS_P1;PMS_P2;Temp;Humidity;BMP_temperature;BMP_pressure;BME280_temperature;BME280_humidity;BME280_pressure;Samples;Min_cycle;Max_cycle;Signal;HPM_P1;HPM_P2
2022/07/03 00:01:22;;;;;;;5.25;3.13;;;;;;;;;;5013942;28;21852;-74
2022/07/03 00:03:48;;;;;;;4.47;3.05;;;;;;;;;;5017456;28;20029;-77
2022/07/03 00:06:13;;;;;;;5.82;3.00;;;;;;;;;;5012577;28;20055;-75
2022/07/03 00:08:39;;;;;;;4.57;3.05;;;;;;;;;;5015431;28;20044;-78
2022/07/03 00:11:05;;;;;;;5.32;3.50;;;;;;;;;;5016527;28;20121;-77
2022/07/03 00:13:31;;;;;;;4.45;3.17;;;;;;;;;;5013089;28;20037;-78
2022/07/03 00:15:56;;;;;;;4.35;3.08;;;;;;;;;;5016379;28;20792;-74
2022/07/03 00:18:21;;;;;;;5.53;3.45;;;;;;;;;;5015644;28;20048;-75
2022/07/03 00:20:58;;;;;;;8.30;3.50;;;;;;;;;;5014959;28;20079;-75
2022/07/03 00:23:23;;;;;;;7.15;4.25;;;;;;;;;;5013785;28;20371;-77
2022/07/03 00:25:49;;;;;;;5.70;4.43;;;;;;;;;;5014702;28;20040;-77
2022/07/03 00:28:18;;;;;;;5.55;4.63;;;;;;;;;;5011733;28;20057;-74
2022/07/03 00:30:47;;;;;;;5.45;4.95;;;;;;;;;;5013457;28;20060;-78
2022/07/03 00:33:13;;;;;;;7.82;5.10;;;;;;;;;;5014872;28;20117;-75
2022/07/03 00:35:39;;;;;;;6.22;5.45;;;;;;;;;;5024939;28;20021;-75
2022/07/03 00:38:05;;;;;;;6.35;5.30;;;;;;;;;;5012466;28;20032;-75
2022/07/03 00:40:30;;;;;;;6.05;4.65;;;;;;;;;;5014591;28;20025;-77
2022/07/03 00:42:59;;;;;;;5.30;4.75;;;;;;;;;;5011400;28;20040;-75
2022/07/03 00:45:26;;;;;;;5.38;4.88;;;;;;;;;;5016236;28;20036;-74
2022/07/03 00:47:52;;;;;;;6.18;4.13;;;;;;;;;;5013917;28;20307;-78
2022/07/03 00:50:24;;;;;;;6.07;5.03;;;;;;;;;;5016486;28;20029;-77
2022/07/03 00:52:52;;;;;;;6.10;4.97;;;;;;;;;;5014475;28;20087;-78
2022/07/03 00:55:18;;;;;;;6.68;5.25;;;;;;;;;;5017507;28;20025;-78
2022/07/03 00:57:47;;;;;;;6.10;5.22;;;;;;;;;;5013275;28;20087;-78
2022/07/03 01:00:14;;;;;;;6.13;4.65;;;;;;;;;;5013222;28;20131;-75
2022/07/03 01:02:43;;;;;;;6.07;4.20;;;;;;;;;;5013549;28;20100;-76
2022/07/03 01:05:15;;;;;;;5.07;4.55;;;;;;;;;;5015641;28;20036;-75
2022/07/03 01:07:43;;;;;;;;;;;;;;;;;;5014881;28;20048;-78
2022/07/03 01:10:46;;;;;;;5.85;4.57;;;;;;;;;;5003653;28;20016;-77
2022/07/03 01:13:21;;;;;;;4.70;4.20;;;;;;;;;;5022191;28;20044;-76
2022/07/03 01:16:03;;;;;;;6.68;4.82;;;;;;;;;;5010489;28;20050;-77
2022/07/03 01:18:52;;;;;;;6.32;5.30;;;;;;;;;;5011002;28;20033;-76
2022/07/03 01:21:24;;;;;;;6.22;5.43;;;;;;;;;;5010668;28;20528;-74
2022/07/03 01:24:18;;;;;;;5.87;5.27;;;;;;;;;;5007728;28;20033;-75
2022/07/03 01:26:47;;;;;;;6.03;5.10;;;;;;;;;;5010997;28;20029;-76
2022/07/03 01:29:25;;;;;;;8.27;5.53;;;;;;;;;;5010272;28;20059;-78
2022/07/03 01:31:53;;;;;;;6.55;4.43;;;;;;;;;;5013457;28;20048;-78
2022/07/03 01:34:20;;;;;;;7.57;5.10;;;;;;;;;;5011101;28;20735;-78
2022/07/03 01:36:49;;;;;;;5.10;4.60;;;;;;;;;;5007658;28;20056;-76
2022/07/03 01:39:17;;;;;;;6.18;4.10;;;;;;;;;;5012209;28;20033;-75
2022/07/03 01:41:47;;;;;;;5.95;4.55;;;;;;;;;;5011387;28;20030;-77
2022/07/03 01:44:14;;;;;;;7.60;4.95;;;;;;;;;;5012501;28;20469;-78
2022/07/03 01:46:41;;;;;;;5.97;4.68;;;;;;;;;;5014402;28;20589;-78
2022/07/03 01:49:10;;;;;;;5.63;4.97;;;;;;;;;;5012232;28;20033;-75
2022/07/03 01:51:38;;;;;;;5.55;4.45;;;;;;;;;;5007102;28;20033;-76
2022/07/03 01:54:05;;;;;;;5.88;4.53;;;;;;;;;;5011522;28;20078;-76
2022/07/03 01:56:32;;;;;;;5.22;4.05;;;;;;;;;;5014930;28;20029;-79
2022/07/03 01:58:59;;;;;;;6.15;4.40;;;;;;;;;;5011094;28;20490;-76
2022/07/03 02:01:40;;;;;;;6.45;4.63;;;;;;;;;;5012429;28;20469;-76
2022/07/03 02:04:34;;;;;;;5.45;4.57;;;;;;;;;;5012040;28;20032;-76
2022/07/03 02:07:10;;;;;;;5.75;4.00;;;;;;;;;;5011901;28;20029;-77
2022/07/03 02:09:43;;;;;;;6.47;4.53;;;;;;;;;;5007715;28;20029;-76
2022/07/03 02:12:13;;;;;;;6.30;4.22;;;;;;;;;;5010462;28;20123;-77
2022/07/03 02:14:40;;;;;;;5.53;4.40;;;;;;;;;;5010706;28;20026;-77
2022/07/03 02:17:16;;;;;;;5.72;4.53;;;;;;;;;;5010062;28;20505;-77
2022/07/03 02:19:54;;;;;;;6.05;4.47;;;;;;;;;;5008005;28;20155;-77
2022/07/03 02:22:25;;;;;;;6.50;4.25;;;;;;;;;;5012015;28;20030;-78
2022/07/03 02:24:51;;;;;;;4.70;3.83;;;;;;;;;;5010991;28;20496;-77
2022/07/03 02:27:21;;;;;;;5.45;4.30;;;;;;;;;;5010899;28;20056;-76
2022/07/03 02:29:58;;;;;;;4.80;3.80;;;;;;;;;;5008401;28;20679;-75
2022/07/03 02:32:26;;;;;;;5.07;4.13;;;;;;;;;;5007824;28;20140;-78
2022/07/03 02:35:00;;;;;;;4.63;3.45;;;;;;;;;;5009848;28;20469;-77
2022/07/03 02:37:30;;;;;;;5.07;3.75;;;;;;;;;;5013126;28;20025;-77
2022/07/03 02:40:14;;;;;;;6.18;4.18;;;;;;;;;;5007645;28;20458;-75
2022/07/03 02:43:12;;;;;;;6.40;4.10;;;;;;;;;;5013258;28;20060;-76
2022/07/03 02:45:55;;;;;;;4.18;3.60;;;;;;;;;;5008588;28;20072;-76
2022/07/03 02:48:51;;;;;;;4.32;3.60;;;;;;;;;;5013738;28;20492;-74
2022/07/03 02:51:22;;;;;;;4.78;3.65;;;;;;;;;;5003912;28;20521;-75
2022/07/03 02:53:58;;;;;;;5.15;3.78;;;;;;;;;;5012646;28;20437;-76
2022/07/03 02:56:36;;;;;;;5.85;4.28;;;;;;;;;;5010284;28;20059;-76
2022/07/03 02:59:20;;;;;;;4.95;3.63;;;;;;;;;;5008878;28;20033;-78
2022/07/03 03:01:54;;;;;;;5.30;3.97;;;;;;;;;;5008445;28;20492;-78
2022/07/03 03:04:32;;;;;;;4.88;3.65;;;;;;;;;;5014618;28;20399;-76
2022/07/03 03:07:07;;;;;;;9.02;4.35;;;;;;;;;;5008785;28;20045;-76
2022/07/03 03:09:41;;;;;;;4.80;3.60;;;;;;;;;;5009413;28;20038;-78
2022/07/03 03:12:08;;;;;;;5.10;3.88;;;;;;;;;;5007307;28;20052;-78
2022/07/03 03:14:39;;;;;;;5.38;3.70;;;;;;;;;;5011184;28;20025;-77
2022/07/03 03:17:06;;;;;;;5.05;3.45;;;;;;;;;;5007359;28;20037;-78
2022/07/03 03:19:39;;;;;;;6.72;4.70;;;;;;;;;;5022507;28;20029;-75
2022/07/03 03:22:20;;;;;;;4.85;3.95;;;;;;;;;;5009619;28;20109;-75
2022/07/03 03:24:46;;;;;;;5.32;4.15;;;;;;;;;;5008849;28;20040;-75
2022/07/03 03:27:12;;;;;;;5.10;3.88;;;;;;;;;;5009121;28;20033;-75
2022/07/03 03:29:39;;;;;;;5.63;4.13;;;;;;;;;;5010555;28;20049;-74
2022/07/03 03:32:05;;;;;;;5.18;4.20;;;;;;;;;;5010994;28;20067;-74
2022/07/03 03:34:32;;;;;;;5.13;3.92;;;;;;;;;;5008576;28;20959;-77
2022/07/03 03:36:58;;;;;;;5.95;4.00;;;;;;;;;;5010133;28;20087;-78
2022/07/03 03:39:24;;;;;;;5.35;4.10;;;;;;;;;;5007040;28;20069;-74
2022/07/03 03:41:50;;;;;;;5.10;3.80;;;;;;;;;;5005837;28;20038;-78
2022/07/03 03:44:15;;;;;;;5.18;4.15;;;;;;;;;;5005019;28;20096;-77
2022/07/03 03:46:41;;;;;;;4.82;3.60;;;;;;;;;;5006617;28;20123;-78
2022/07/03 03:49:06;;;;;;;7.13;4.28;;;;;;;;;;5009884;28;20758;-78
2022/07/03 03:51:32;;;;;;;4.80;3.88;;;;;;;;;;5007500;28;20040;-78
2022/07/03 03:53:57;;;;;;;5.75;4.65;;;;;;;;;;5010724;28;20056;-77
2022/07/03 03:56:24;;;;;;;7.00;4.60;;;;;;;;;;5012824;28;20033;-77
2022/07/03 03:58:49;;;;;;;5.78;4.15;;;;;;;;;;5008036;28;20469;-78
2022/07/03 04:01:14;;;;;;;6.72;4.22;;;;;;;;;;5011713;28;20026;-78
2022/07/03 04:03:41;;;;;;;5.88;3.97;;;;;;;;;;5008070;28;20037;-75
2022/07/03 04:06:06;;;;;;;6.00;3.90;;;;;;;;;;5009656;28;20136;-78
2022/07/03 04:08:31;;;;;;;5.30;4.20;;;;;;;;;;5008895;28;20025;-78
2022/07/03 04:10:57;;;;;;;6.03;4.13;;;;;;;;;;5002317;28;20573;-76
2022/07/03 04:13:22;;;;;;;6.00;4.35;;;;;;;;;;5003775;28;20091;-77
2022/07/03 04:15:50;;;;;;;6.10;4.50;;;;;;;;;;5009114;28;20026;-78
2022/07/03 04:18:15;;;;;;;6.50;3.85;;;;;;;;;;5011977;28;21158;-76
2022/07/03 04:20:41;;;;;;;6.03;4.00;;;;;;;;;;5010689;28;20017;-76
2022/07/03 04:23:06;;;;;;;6.57;4.05;;;;;;;;;;5009504;28;20041;-75
2022/07/03 04:25:32;;;;;;;6.00;4.30;;;;;;;;;;5006985;28;20528;-74
2022/07/03 04:27:57;;;;;;;5.75;4.30;;;;;;;;;;5006838;28;20037;-76
2022/07/03 04:30:23;;;;;;;5.68;4.20;;;;;;;;;;5014337;28;20053;-76
2022/07/03 04:32:49;;;;;;;6.05;4.47;;;;;;;;;;5010181;28;20042;-76
2022/07/03 04:35:14;;;;;;;5.93;4.10;;;;;;;;;;5009674;28;20059;-77
2022/07/03 04:37:41;;;;;;;5.78;4.13;;;;;;;;;;5026587;28;20420;-78
2022/07/03 04:40:07;;;;;;;6.75;3.78;;;;;;;;;;5009549;28;20790;-78
2022/07/03 04:42:33;;;;;;;5.32;3.40;;;;;;;;;;5013753;28;20032;-75
2022/07/03 04:44:58;;;;;;;4.35;2.83;;;;;;;;;;5012704;28;20025;-76
2022/07/03 04:47:24;;;;;;;4.25;2.80;;;;;;;;;;5010226;28;20029;-77
2022/07/03 04:49:49;;;;;;;6.82;2.72;;;;;;;;;;5014220;28;21875;-75
2022/07/03 04:52:15;;;;;;;5.22;2.88;;;;;;;;;;5011476;28;20512;-78
2022/07/03 04:54:40;;;;;;;4.03;2.83;;;;;;;;;;5009309;28;20048;-76
2022/07/03 04:57:05;;;;;;;4.72;2.70;;;;;;;;;;5014602;28;20053;-77
2022/07/03 04:59:31;;;;;;;4.32;2.60;;;;;;;;;;5012334;28;20041;-75
2022/07/03 05:01:56;;;;;;;5.18;2.65;;;;;;;;;;5011041;28;20034;-75
2022/07/03 05:04:22;;;;;;;10.60;3.80;;;;;;;;;;5011081;28;20108;-76
2022/07/03 05:06:48;;;;;;;5.60;2.75;;;;;;;;;;5012494;28;20099;-77
2022/07/03 05:09:14;;;;;;;5.68;3.58;;;;;;;;;;5008954;28;20041;-78
2022/07/03 05:11:40;;;;;;;4.75;3.13;;;;;;;;;;5012908;28;20040;-77
2022/07/03 05:14:06;;;;;;;6.55;3.40;;;;;;;;;;5011493;28;20034;-78
2022/07/03 05:16:32;;;;;;;4.63;3.33;;;;;;;;;;5012439;28;20044;-76
2022/07/03 05:18:57;;;;;;;6.85;3.70;;;;;;;;;;5006625;28;20033;-75
2022/07/03 05:21:23;;;;;;;5.55;3.15;;;;;;;;;;5012412;28;20033;-75
2022/07/03 05:23:48;;;;;;;5.05;3.40;;;;;;;;;;5013259;28;20042;-75
2022/07/03 05:26:14;;;;;;;4.90;3.28;;;;;;;;;;5012240;28;20152;-77
2022/07/03 05:28:39;;;;;;;5.55;2.95;;;;;;;;;;5011937;28;20024;-76
2022/07/03 05:31:05;;;;;;;5.25;3.30;;;;;;;;;;5011846;28;20022;-78
2022/07/03 05:33:30;;;;;;;5.88;3.15;;;;;;;;;;5009038;28;20053;-75
2022/07/03 05:35:56;;;;;;;5.60;3.08;;;;;;;;;;5006683;28;20481;-76
2022/07/03 05:41:06;;;;;;;5.07;3.00;;;;;;;;;;5010543;28;20028;-77
2022/07/03 05:43:32;;;;;;;5.82;3.10;;;;;;;;;;5012362;28;20379;-74
2022/07/03 05:45:57;;;;;;;5.95;3.45;;;;;;;;;;5011472;28;20033;-78
2022/07/03 05:48:23;;;;;;;5.78;3.42;;;;;;;;;;5013941;28;20103;-75
2022/07/03 05:50:48;;;;;;;7.28;3.50;;;;;;;;;;5013075;28;20033;-76
2022/07/03 05:53:14;;;;;;;5.05;3.60;;;;;;;;;;5014755;28;20096;-79
2022/07/03 05:55:39;;;;;;;5.28;3.50;;;;;;;;;;5012580;28;20061;-79
2022/07/03 05:58:05;;;;;;;5.93;3.05;;;;;;;;;;5012348;28;20037;-75
2022/07/03 06:00:30;;;;;;;5.93;3.00;;;;;;;;;;5010631;28;20490;-78
2022/07/03 06:02:55;;;;;;;3.90;2.80;;;;;;;;;;5011618;28;20029;-76
2022/07/03 06:05:21;;;;;;;4.65;2.80;;;;;;;;;;5008382;28;20037;-75
2022/07/03 06:07:46;;;;;;;3.55;2.28;;;;;;;;;;5011742;28;20072;-76
2022/07/03 06:10:12;;;;;;;4.32;2.30;;;;;;;;;;5011346;28;20057;-77
2022/07/03 06:12:37;;;;;;;3.13;1.80;;;;;;;;;;5014093;28;20037;-76
2022/07/03 06:15:03;;;;;;;3.38;1.75;;;;;;;;;;5013069;28;20025;-78
2022/07/03 06:17:29;;;;;;;4.80;2.47;;;;;;;;;;5014017;28;20027;-77
2022/07/03 06:19:54;;;;;;;3.47;2.17;;;;;;;;;;5013828;28;20026;-78
2022/07/03 06:22:19;;;;;;;5.53;2.47;;;;;;;;;;5010743;28;20075;-78
2022/07/03 06:24:45;;;;;;;5.25;2.13;;;;;;;;;;5011271;28;20033;-76
2022/07/03 06:27:10;;;;;;;5.93;2.25;;;;;;;;;;5007297;28;20037;-80
2022/07/03 06:29:36;;;;;;;3.53;1.88;;;;;;;;;;5008221;28;20042;-79
2022/07/03 06:32:01;;;;;;;4.72;2.25;;;;;;;;;;5009004;28;20033;-79
2022/07/03 06:34:26;;;;;;;3.75;1.90;;;;;;;;;;5022955;28;20032;-79
2022/07/03 06:36:52;;;;;;;4.85;2.20;;;;;;;;;;5026121;28;20029;-75
2022/07/03 06:39:17;;;;;;;5.55;2.08;;;;;;;;;;5019738;28;20416;-76
2022/07/03 06:41:42;;;;;;;4.80;1.85;;;;;;;;;;5027850;28;20072;-75
2022/07/03 06:44:08;;;;;;;4.82;2.10;;;;;;;;;;5024415;28;20033;-79
2022/07/03 06:46:33;;;;;;;4.80;2.25;;;;;;;;;;5023853;28;20133;-75
2022/07/03 06:48:58;;;;;;;4.70;2.10;;;;;;;;;;5024513;28;20032;-79
2022/07/03 06:51:24;;;;;;;6.05;1.88;;;;;;;;;;5030046;28;20084;-75
2022/07/03 06:53:49;;;;;;;5.20;1.90;;;;;;;;;;5025650;28;20025;-79
2022/07/03 06:56:15;;;;;;;5.78;1.90;;;;;;;;;;5024328;28;20029;-75
2022/07/03 06:58:40;;;;;;;3.35;1.90;;;;;;;;;;5026052;28;20055;-76
2022/07/03 07:01:05;;;;;;;5.00;2.10;;;;;;;;;;5021095;28;20397;-80
2022/07/03 07:03:31;;;;;;;4.03;1.98;;;;;;;;;;5028452;28;20152;-76
2022/07/03 07:05:56;;;;;;;5.03;2.00;;;;;;;;;;5026428;28;20033;-76
2022/07/03 07:08:22;;;;;;;3.13;1.70;;;;;;;;;;5026727;28;20560;-80
2022/07/03 07:10:47;;;;;;;3.08;1.60;;;;;;;;;;5027865;28;20064;-80
2022/07/03 07:13:13;;;;;;;5.65;2.30;;;;;;;;;;5023723;28;20025;-75
2022/07/03 07:15:38;;;;;;;4.75;2.13;;;;;;;;;;5024615;28;20025;-80
2022/07/03 07:18:03;;;;;;;5.00;1.90;;;;;;;;;;5026730;28;20025;-76
2022/07/03 07:20:29;;;;;;;3.17;1.70;;;;;;;;;;5027782;28;20371;-75
2022/07/03 07:22:54;;;;;;;5.50;2.15;;;;;;;;;;5024927;28;20354;-77
2022/07/03 07:25:20;;;;;;;5.38;2.25;;;;;;;;;;5020228;28;20034;-80
2022/07/03 07:27:45;;;;;;;5.60;2.20;;;;;;;;;;5024214;28;20080;-80
2022/07/03 07:30:11;;;;;;;4.05;2.00;;;;;;;;;;5022159;28;20417;-79
2022/07/03 07:32:36;;;;;;;4.53;1.92;;;;;;;;;;5023085;28;20133;-76
2022/07/03 07:35:02;;;;;;;3.53;1.88;;;;;;;;;;5026979;28;20112;-77
2022/07/03 07:37:28;;;;;;;5.55;2.20;;;;;;;;;;5026050;28;20075;-80
2022/07/03 07:39:53;;;;;;;4.22;2.10;;;;;;;;;;5029806;28;20057;-80
2022/07/03 07:42:19;;;;;;;4.72;2.20;;;;;;;;;;5025308;28;20039;-80
2022/07/03 07:44:44;;;;;;;5.10;2.05;;;;;;;;;;5022862;28;20036;-78
2022/07/03 07:47:10;;;;;;;3.55;1.80;;;;;;;;;;5024323;28;20033;-79
2022/07/03 07:49:35;;;;;;;4.50;1.90;;;;;;;;;;5020554;28;20077;-81
2022/07/03 07:52:01;;;;;;;2.97;1.75;;;;;;;;;;5018577;28;20033;-77
2022/07/03 07:54:26;;;;;;;3.35;1.60;;;;;;;;;;5018818;28;20124;-71
2022/07/03 07:56:51;;;;;;;3.60;1.48;;;;;;;;;;5022439;28;20042;-77
2022/07/03 07:59:17;;;;;;;4.07;1.67;;;;;;;;;;5025044;28;20029;-76
2022/07/03 08:07:10;;;;;;;4.10;1.90;;;;;;;;;;5022263;28;20072;-69
2022/07/03 08:09:35;;;;;;;4.15;1.92;;;;;;;;;;5022987;28;20033;-73
2022/07/03 08:12:01;;;;;;;5.68;1.90;;;;;;;;;;5028989;28;20116;-73
2022/07/03 08:14:26;;;;;;;3.67;1.80;;;;;;;;;;5028795;28;20030;-74
2022/07/03 08:16:51;;;;;;;5.50;1.95;;;;;;;;;;5029070;28;20068;-74
2022/07/03 08:19:17;;;;;;;5.35;1.90;;;;;;;;;;5028897;28;20025;-75
2022/07/03 08:21:42;;;;;;;3.50;1.85;;;;;;;;;;5028906;28;20036;-74
2022/07/03 08:24:08;;;;;;;2.95;1.80;;;;;;;;;;5028570;28;20417;-73
2022/07/03 08:26:33;;;;;;;4.43;2.10;;;;;;;;;;5032029;28;20021;-70
2022/07/03 08:28:59;;;;;;;6.60;1.98;;;;;;;;;;5028701;28;20441;-74
2022/07/03 08:31:24;;;;;;;5.90;2.00;;;;;;;;;;5030878;28;20017;-74
2022/07/03 08:33:49;;;;;;;4.68;2.00;;;;;;;;;;5032741;28;20025;-74
2022/07/03 08:36:15;;;;;;;3.85;1.85;;;;;;;;;;5030874;28;20033;-75
2022/07/03 08:38:43;;;;;;;6.45;1.90;;;;;;;;;;5029987;28;20022;-76
2022/07/03 08:41:10;;;;;;;4.45;1.70;;;;;;;;;;5030782;28;20044;-74
2022/07/03 08:43:39;;;;;;;4.28;1.60;;;;;;;;;;5031983;28;20030;-73
2022/07/03 08:46:05;;;;;;;4.80;1.80;;;;;;;;;;5033988;28;20048;-68
2022/07/03 08:48:33;;;;;;;4.07;1.40;;;;;;;;;;5028565;28;20056;-73
2022/07/03 08:51:01;;;;;;;6.20;1.90;;;;;;;;;;5025767;28;20763;-72
2022/07/03 08:53:26;;;;;;;2.47;1.60;;;;;;;;;;5032232;28;20053;-73
2022/07/03 08:55:52;;;;;;;2.47;1.30;;;;;;;;;;5025868;28;20042;-73
2022/07/03 08:58:21;;;;;;;3.22;1.50;;;;;;;;;;5028228;28;20021;-73
2022/07/03 09:00:46;;;;;;;3.58;1.15;;;;;;;;;;5030637;28;20053;-73
2022/07/03 09:03:14;;;;;;;4.38;1.17;;;;;;;;;;5027364;28;20072;-69
2022/07/03 09:05:40;;;;;;;2.83;1.38;;;;;;;;;;5025198;28;20425;-72
2022/07/03 09:08:07;;;;;;;4.20;1.70;;;;;;;;;;5031157;28;20029;-69
2022/07/03 09:10:33;;;;;;;3.33;1.40;;;;;;;;;;5026941;28;20018;-74
2022/07/03 09:12:58;;;;;;;5.80;1.60;;;;;;;;;;5025954;28;20117;-72
2022/07/03 09:15:24;;;;;;;3.13;1.33;;;;;;;;;;5023245;28;20048;-74
2022/07/03 09:18:00;;;;;;;2.58;1.40;;;;;;;;;;5029150;28;20386;-73
2022/07/03 09:20:43;;;;;;;3.40;1.40;;;;;;;;;;5020579;28;20033;-72
2022/07/03 09:23:10;;;;;;;;;;;;;;;;;;5047760;28;20037;-69
2022/07/03 09:25:49;;;;;;;3.08;1.02;;;;;;;;;;5025738;28;20035;-74
2022/07/03 09:28:14;;;;;;;4.05;1.52;;;;;;;;;;5030120;28;20025;-72
2022/07/03 09:30:56;;;;;;;3.28;1.77;;;;;;;;;;5027358;28;20048;-68
2022/07/03 09:33:21;;;;;;;3.72;1.83;;;;;;;;;;5024034;28;20037;-68
2022/07/03 09:35:53;;;;;;;3.33;1.73;;;;;;;;;;5019262;28;20477;-73
2022/07/03 09:38:18;;;;;;;2.22;1.63;;;;;;;;;;5024139;28;20140;-70
2022/07/03 09:40:56;;;;;;;3.30;1.85;;;;;;;;;;5024345;28;20067;-70
2022/07/03 09:43:29;;;;;;;3.72;1.85;;;;;;;;;;5022371;28;20155;-73
2022/07/03 09:45:59;;;;;;;4.28;1.85;;;;;;;;;;5022304;28;20061;-73
2022/07/03 09:48:34;;;;;;;2.63;1.95;;;;;;;;;;5020698;28;20092;-73
2022/07/03 09:51:12;;;;;;;3.28;2.00;;;;;;;;;;5019998;28;20040;-73
2022/07/03 09:53:44;;;;;;;4.13;1.88;;;;;;;;;;5023949;28;20111;-74
2022/07/03 09:56:10;;;;;;;;;;;;;;;;;;5025173;28;20048;-73
2022/07/03 09:58:36;;;;;;;3.90;2.10;;;;;;;;;;5012670;28;20010;-73
2022/07/03 10:01:20;;;;;;;3.38;2.10;;;;;;;;;;5023638;28;20504;-73
2022/07/03 10:03:47;;;;;;;2.85;2.00;;;;;;;;;;5023499;28;20034;-73
2022/07/03 10:06:12;;;;;;;3.35;1.92;;;;;;;;;;5020192;28;20069;-73
2022/07/03 10:08:39;;;;;;;3.92;2.25;;;;;;;;;;5020882;28;20053;-73
2022/07/03 10:11:05;;;;;;;3.25;2.10;;;;;;;;;;5024237;28;20037;-73
2022/07/03 10:13:33;;;;;;;4.07;2.22;;;;;;;;;;5024702;28;20166;-73
2022/07/03 10:16:00;;;;;;;5.55;2.70;;;;;;;;;;5024486;28;20617;-73
2022/07/03 10:18:30;;;;;;;3.20;2.03;;;;;;;;;;5020893;28;20452;-76
2022/07/03 10:20:57;;;;;;;3.05;2.50;;;;;;;;;;5020408;28;20021;-73
2022/07/03 10:23:24;;;;;;;3.30;2.15;;;;;;;;;;5023197;28;20124;-74
2022/07/03 10:25:50;;;;;;;5.38;2.88;;;;;;;;;;5014674;28;20412;-71
2022/07/03 10:28:17;;;;;;;2.95;2.22;;;;;;;;;;5019866;28;20099;-74
2022/07/03 10:30:44;;;;;;;4.47;2.33;;;;;;;;;;5019766;28;20490;-75
2022/07/03 10:33:10;;;;;;;4.72;2.03;;;;;;;;;;5024990;28;20418;-70
2022/07/03 10:35:44;;;;;;;5.60;2.80;;;;;;;;;;5020594;28;20112;-74
2022/07/03 10:38:28;;;;;;;3.85;2.90;;;;;;;;;;5020282;28;20116;-72
2022/07/03 10:46:31;;;;;;;6.72;2.53;;;;;;;;;;5020059;28;20091;-74
2022/07/03 10:49:01;;;;;;;3.85;2.53;;;;;;;;;;5021404;28;20044;-74
2022/07/03 10:51:29;;;;;;;3.70;2.53;;;;;;;;;;5020047;28;20034;-73
2022/07/03 10:54:14;;;;;;;4.30;2.17;;;;;;;;;;5017054;28;20394;-70
2022/07/03 10:56:57;;;;;;;5.45;3.05;;;;;;;;;;5024217;28;20040;-73
2022/07/03 10:59:44;;;;;;;3.90;2.28;;;;;;;;;;5019100;28;20419;-74
2022/07/03 11:02:31;;;;;;;4.15;2.47;;;;;;;;;;5020287;28;20103;-74
2022/07/03 11:04:56;;;;;;;5.00;2.40;;;;;;;;;;5021504;28;20034;-74
2022/07/03 11:07:32;;;;;;;3.42;2.20;;;;;;;;;;5023135;28;20029;-74
2022/07/03 11:10:10;;;;;;;4.13;1.60;;;;;;;;;;5015248;28;20497;-74
2022/07/03 11:12:57;;;;;;;3.42;1.50;;;;;;;;;;5016581;28;20030;-74
2022/07/03 11:15:33;;;;;;;2.35;1.40;;;;;;;;;;5021440;28;20096;-71
2022/07/03 11:18:17;;;;;;;2.67;1.40;;;;;;;;;;5023104;28;21054;-76
2022/07/03 11:20:42;;;;;;;2.03;1.45;;;;;;;;;;5022469;28;20091;-72
2022/07/03 11:23:13;;;;;;;3.75;1.40;;;;;;;;;;5028338;28;20026;-74
2022/07/03 11:25:44;;;;;;;2.50;1.30;;;;;;;;;;5021155;28;20483;-72
2022/07/03 11:28:34;;;;;;;2.08;1.40;;;;;;;;;;5026724;28;20027;-73
2022/07/03 11:31:09;;;;;;;3.17;1.60;;;;;;;;;;5025067;28;20510;-73
2022/07/03 11:33:48;;;;;;;2.75;1.25;;;;;;;;;;5020904;28;20048;-70
2022/07/03 11:36:17;;;;;;;1.25;0.70;;;;;;;;;;5026776;28;20021;-74
2022/07/03 11:38:54;;;;;;;1.65;0.90;;;;;;;;;;5028302;28;20025;-73
2022/07/03 11:41:20;;;;;;;3.15;0.80;;;;;;;;;;5014023;28;20107;-73
2022/07/03 11:43:49;;;;;;;2.80;1.10;;;;;;;;;;5015990;28;20025;-71
2022/07/03 11:46:23;;;;;;;2.00;1.00;;;;;;;;;;5019769;28;20108;-72
2022/07/03 11:48:49;;;;;;;1.45;0.85;;;;;;;;;;5025813;28;20065;-72
2022/07/03 11:51:15;;;;;;;1.55;0.70;;;;;;;;;;5026186;28;20110;-74
2022/07/03 11:53:40;;;;;;;3.25;1.08;;;;;;;;;;5019322;28;20099;-71
2022/07/03 11:56:11;;;;;;;1.17;0.80;;;;;;;;;;5023645;28;20030;-71
2022/07/03 11:58:41;;;;;;;1.58;0.90;;;;;;;;;;5021781;28;20048;-73
2022/07/03 12:01:26;;;;;;;3.40;0.85;;;;;;;;;;5015988;28;20030;-72
2022/07/03 12:04:03;;;;;;;1.92;0.80;;;;;;;;;;5018299;28;20316;-71
2022/07/03 12:06:43;;;;;;;1.83;0.90;;;;;;;;;;5025001;28;20025;-73
2022/07/03 12:09:26;;;;;;;1.75;0.90;;;;;;;;;;5025407;28;20025;-73
2022/07/03 12:12:01;;;;;;;1.77;0.98;;;;;;;;;;5023732;28;20041;-73
2022/07/03 12:14:46;;;;;;;2.13;0.98;;;;;;;;;;5023414;28;20033;-74
2022/07/03 12:17:12;;;;;;;1.38;1.00;;;;;;;;;;5021628;28;20036;-72
2022/07/03 12:19:43;;;;;;;1.10;0.90;;;;;;;;;;5019368;28;20064;-74
2022/07/03 12:22:08;;;;;;;1.85;1.00;;;;;;;;;;5025136;28;20037;-74
2022/07/03 12:24:34;;;;;;;2.15;1.08;;;;;;;;;;5023027;28;20099;-73
2022/07/03 12:27:02;;;;;;;2.65;1.40;;;;;;;;;;5021323;28;20036;-73
2022/07/03 12:29:28;;;;;;;2.08;1.33;;;;;;;;;;5023536;28;20056;-72
2022/07/03 12:31:53;;;;;;;2.55;1.38;;;;;;;;;;5026058;28;20033;-73
2022/07/03 12:34:19;;;;;;;3.08;1.35;;;;;;;;;;5021116;28;20509;-72
2022/07/03 12:36:56;;;;;;;1.52;1.10;;;;;;;;;;5027554;28;20752;-72
2022/07/03 12:39:22;;;;;;;3.10;1.27;;;;;;;;;;5022958;28;20041;-73
2022/07/03 12:41:47;;;;;;;2.80;1.20;;;;;;;;;;5041838;28;20033;-70
2022/07/03 12:44:17;;;;;;;4.97;1.20;;;;;;;;;;5020639;28;20045;-72
2022/07/03 12:46:43;;;;;;;3.25;1.27;;;;;;;;;;5024241;28;20508;-73
2022/07/03 12:49:10;;;;;;;3.08;1.48;;;;;;;;;;5017849;28;20025;-73
2022/07/03 12:51:57;;;;;;;3.15;1.58;;;;;;;;;;5024485;28;20151;-72
2022/07/03 12:54:33;;;;;;;2.15;1.38;;;;;;;;;;5023130;28;20048;-72
2022/07/03 13:00:06;;;;;;;2.05;1.40;;;;;;;;;;5022582;28;20735;-74
2022/07/03 13:02:32;;;;;;;4.22;2.30;;;;;;;;;;5024563;28;20034;-70
2022/07/03 13:04:59;;;;;;;4.32;2.22;;;;;;;;;;5022766;28;20065;-73
2022/07/03 13:07:29;;;;;;;5.80;2.50;;;;;;;;;;5024264;28;20489;-70
2022/07/03 13:09:55;;;;;;;3.40;2.20;;;;;;;;;;5039369;28;20033;-73
2022/07/03 13:12:22;;;;;;;6.43;2.60;;;;;;;;;;5026146;28;20036;-71
2022/07/03 13:15:01;;;;;;;3.55;2.38;;;;;;;;;;5029694;28;20033;-71
2022/07/03 13:17:54;;;;;;;4.00;2.40;;;;;;;;;;5023013;28;20030;-72
2022/07/03 13:20:26;;;;;;;4.78;2.78;;;;;;;;;;5026520;28;20029;-73
2022/07/03 13:22:54;;;;;;;3.65;2.50;;;;;;;;;;5026631;28;20140;-73
2022/07/03 13:25:20;;;;;;;2.45;2.03;;;;;;;;;;5026581;28;20037;-73
2022/07/03 13:27:46;;;;;;;3.33;2.20;;;;;;;;;;5022032;28;20553;-69
2022/07/03 13:30:16;;;;;;;3.35;1.85;;;;;;;;;;5021554;28;20053;-71
2022/07/03 13:32:42;;;;;;;3.13;1.90;;;;;;;;;;5026935;28;20456;-72
2022/07/03 13:35:08;;;;;;;3.55;1.48;;;;;;;;;;5020968;28;20033;-73
2022/07/03 13:37:33;;;;;;;3.13;1.40;;;;;;;;;;5024590;28;20342;-71
2022/07/03 13:40:00;;;;;;;5.88;1.88;;;;;;;;;;5023635;28;20052;-70
2022/07/03 13:42:25;;;;;;;3.47;1.58;;;;;;;;;;5022382;28;20112;-72
2022/07/03 13:44:50;;;;;;;3.92;1.60;;;;;;;;;;5023683;28;20151;-70
2022/07/03 13:47:16;;;;;;;2.65;1.40;;;;;;;;;;5021893;28;20120;-70
2022/07/03 13:49:41;;;;;;;4.05;1.58;;;;;;;;;;5018656;28;20053;-72
2022/07/03 13:52:07;;;;;;;3.72;1.75;;;;;;;;;;5018177;28;20059;-72
2022/07/03 13:54:33;;;;;;;2.90;1.42;;;;;;;;;;5018763;28;20034;-72
2022/07/03 13:56:58;;;;;;;2.72;1.60;;;;;;;;;;5021570;28;20045;-70
2022/07/03 13:59:24;;;;;;;3.20;1.80;;;;;;;;;;5023513;28;20084;-72
2022/07/03 14:01:49;;;;;;;2.50;1.60;;;;;;;;;;5022970;28;20025;-71
2022/07/03 14:04:14;;;;;;;4.88;1.70;;;;;;;;;;5020738;28;20029;-71
2022/07/03 14:06:40;;;;;;;3.33;1.77;;;;;;;;;;5021702;28;20033;-72
2022/07/03 14:09:05;;;;;;;3.00;1.90;;;;;;;;;;5018584;28;20034;-72
2022/07/03 14:11:31;;;;;;;2.97;1.75;;;;;;;;;;5023139;28;20033;-72
2022/07/03 14:13:56;;;;;;;4.40;1.70;;;;;;;;;;5024839;28;20466;-72
2022/07/03 14:16:22;;;;;;;3.17;1.70;;;;;;;;;;5023087;28;20036;-70
2022/07/03 14:18:47;;;;;;;4.45;1.63;;;;;;;;;;5024832;28;20033;-72
2022/07/03 14:21:13;;;;;;;3.35;1.90;;;;;;;;;;5028742;28;20065;-73
2022/07/03 14:23:38;;;;;;;2.92;1.50;;;;;;;;;;5019757;28;20034;-73
2022/07/03 14:26:04;;;;;;;3.10;1.60;;;;;;;;;;5025218;28;20033;-73
2022/07/03 14:33:44;;;;;;;2.55;1.40;;;;;;;;;;5021962;28;20037;-73
2022/07/03 14:36:10;;;;;;;2.03;1.10;;;;;;;;;;5025281;28;20060;-72
2022/07/03 14:38:35;;;;;;;2.90;1.50;;;;;;;;;;5021942;28;20726;-71
2022/07/03 14:41:01;;;;;;;2.95;1.48;;;;;;;;;;5024060;28;20029;-69
2022/07/03 14:43:27;;;;;;;2.33;1.10;;;;;;;;;;5021663;28;20033;-73
2022/07/03 14:45:52;;;;;;;3.15;1.30;;;;;;;;;;5014880;28;20549;-73
2022/07/03 14:48:18;;;;;;;2.28;1.20;;;;;;;;;;5024725;28;20026;-71
2022/07/03 14:50:43;;;;;;;2.10;1.15;;;;;;;;;;5026697;28;20111;-68
2022/07/03 14:53:09;;;;;;;1.63;1.10;;;;;;;;;;5030994;28;20386;-71
2022/07/03 14:55:40;;;;;;;3.00;1.20;;;;;;;;;;5023483;28;20402;-68
2022/07/03 14:58:26;;;;;;;1.58;0.90;;;;;;;;;;5024987;28;20030;-71
2022/07/03 15:00:55;;;;;;;2.00;0.95;;;;;;;;;;5022734;28;20022;-68
2022/07/03 15:03:34;;;;;;;2.30;0.98;;;;;;;;;;5026791;28;20063;-71
2022/07/03 15:06:01;;;;;;;2.53;1.30;;;;;;;;;;5021297;28;20026;-68
2022/07/03 15:08:27;;;;;;;1.60;0.80;;;;;;;;;;5024355;28;20549;-73
2022/07/03 15:10:53;;;;;;;1.83;1.00;;;;;;;;;;5023826;28;20187;-69
2022/07/03 15:13:19;;;;;;;2.22;0.93;;;;;;;;;;5021085;28;20091;-70
2022/07/03 15:15:46;;;;;;;2.65;1.00;;;;;;;;;;5023671;28;20030;-71